Dodgeville, WI

7:16 AM CDT on September 01, 2015 (GMT -0500)
KWIDODGE2 | | Change Station
CLOSE
Current Station
Personal Weather Station
Location: Dodgeville, WI
Elevation: 1240 ft
Nearby Weather Stations

Elev 1240 ft 42.96 °N, 90.13 °W | Updated 2 minutes ago

Fog
Fog
68.8 °F
Feels Like 68.8 °F
N
0.0
Wind Variable Wind from East
Gusts 0.0 mph

Today
High -- | Low -- °F
--% Chance of Precip.
Yesterday
High -- | Low -- °F
Precip. -- in
6:24 AM 7:35 PM
Waning Gibbous, 89% visible
Pressure 30.03 in
Visibility 0.2 miles
Clouds Overcast 200 ft
Dew Point 68 °F
Humidity 97%
Rainfall 0.00 in
Snow Depth Not available.
UV 0 out of 12
Pollen 10.80 out of 12
Air Quality Not available.
Flu Activity Not available.
METAR KMRJ 011155Z AUTO 00000KT M1/4SM FG OVC002 21/20 A3003 RMK AO2
Pressure 30.03 in
Visibility 0.2 miles
Clouds Overcast 200 ft
Dew Point 68 °F
Humidity 97%
Rainfall 0.00 in
Snow Depth Not available.
UV 0 out of 12
Pollen 10.80 out of 12
Air Quality Not available.
Flu Activity Not available.
METAR KMRJ 011155Z AUTO 00000KT M1/4SM FG OVC002 21/20 A3003 RMK AO2
Nowcast | as of 5:08 am CDT on September 1, 2015

Clear skies...light winds and a humid air mass have lead to fog development across southern Wisconsin early this morning. Some of the heaviest fog is occurring near and along Lake Michigan...and also out in the Countryside where cool air drains into the usual low spots. Visibilities in some areas will be reduced to 1/4 mile or less. Look for visibilities to improve quickly after sunrise.

×

10-Day Weather Forecast

×

Almanac

Astronomy

Sep. 01, 2015 Rise Set
Actual Time
Civil Twilight
Nautical Twilight
Astronomical Twilight
Moon
Length of Visible Light
Length of Day
Tomorrow will be .
, % of the Moon is Illuminated

Today's Extremes

State Highs State Lows

Community

WunderPhotos

Upload Photos

1,851,508 photos uploaded!

WunderBlogs® & News

Nearby

Air Quality

  Air Quality AQ Index Pollutant
Not available.

Snow Depth

Station Depth Elevation

Earthquake Activity

City Distance Mag. Time & Date
Minimum magnitude displayed is 2.5.

Coastal Water Temperatures

Place Temperature

Stations

Nearby Weather Stations

Station Location Temp. Windchill Dew Point Humidity Wind Precip. Elev Updated Type